Time;durP1;ratioP1;P1;durP2;ratioP2;P2;SDS_P1;SDS_P2;PMS_P1;PMS_P2;Temp;Humidity;BMP_temperature;BMP_pressure;BME280_temperature;BME280_humidity;BME280_pressure;Samples;Min_cycle;Max_cycle;Signal;HPM_P1;HPM_P2
2022/01/30 00:01:24;;;;;;;25.50;3.95;;;8.70;91.10;;;;;;5075087;28;20472;-76
2022/01/30 00:03:49;;;;;;;31.40;4.45;;;8.70;91.20;;;;;;5074838;28;20025;-76
2022/01/30 00:06:15;;;;;;;31.02;5.03;;;8.80;91.20;;;;;;5072944;28;20082;-76
2022/01/30 00:08:41;;;;;;;28.17;4.47;;;8.80;91.00;;;;;;5073109;28;20027;-76
2022/01/30 00:11:14;;;;;;;31.42;4.57;;;8.80;90.90;;;;;;5073250;28;20051;-76
2022/01/30 00:13:40;;;;;;;23.77;4.40;;;8.70;90.90;;;;;;5073492;28;20028;-74
2022/01/30 00:16:08;;;;;;;31.08;4.75;;;8.80;91.10;;;;;;5074867;28;20120;-73
2022/01/30 00:18:47;;;;;;;31.80;4.07;;;8.70;91.20;;;;;;5077574;28;20021;-75
2022/01/30 00:21:29;;;;;;;28.80;4.20;;;8.70;91.00;;;;;;5075185;28;20540;-75
2022/01/30 00:24:03;;;;;;;32.65;4.50;;;8.70;91.00;;;;;;5074530;28;20021;-75
2022/01/30 00:26:32;;;;;;;32.80;6.28;;;8.70;91.00;;;;;;5074608;28;20020;-75
2022/01/30 00:28:59;;;;;;;23.90;4.30;;;8.70;90.70;;;;;;5074815;28;20043;-75
2022/01/30 00:31:26;;;;;;;24.25;4.45;;;8.60;90.80;;;;;;5074746;28;20028;-75
2022/01/30 00:33:52;;;;;;;26.17;5.38;;;8.60;90.80;;;;;;5074783;28;20028;-75
2022/01/30 00:36:18;;;;;;;29.98;3.78;;;8.60;90.80;;;;;;5074627;28;20464;-75
2022/01/30 00:38:44;;;;;;;34.22;5.32;;;8.50;90.80;;;;;;5074067;28;20020;-75
2022/01/30 00:41:09;;;;;;;32.35;4.65;;;8.50;90.80;;;;;;5074387;28;20028;-74
2022/01/30 00:43:35;;;;;;;30.77;5.00;;;8.40;90.80;;;;;;5074716;28;20383;-74
2022/01/30 00:46:00;;;;;;;34.13;4.85;;;8.40;91.00;;;;;;5074191;28;20461;-76
2022/01/30 00:48:26;;;;;;;28.75;4.40;;;8.40;91.20;;;;;;5074415;28;20026;-76
2022/01/30 00:50:53;;;;;;;27.73;4.10;;;8.40;91.20;;;;;;5074383;28;20032;-76
2022/01/30 00:53:19;;;;;;;39.63;5.63;;;8.40;91.50;;;;;;5074221;28;20044;-76
2022/01/30 00:55:45;;;;;;;28.13;3.85;;;8.40;91.30;;;;;;5074111;28;20464;-76
2022/01/30 00:58:10;;;;;;;29.30;4.43;;;8.40;91.20;;;;;;5074342;28;20024;-76
2022/01/30 01:00:37;;;;;;;25.58;4.25;;;8.40;91.20;;;;;;5073475;28;20031;-76
2022/01/30 01:03:03;;;;;;;25.73;4.07;;;8.40;91.30;;;;;;5073708;28;20048;-76
2022/01/30 01:05:30;;;;;;;23.42;3.50;;;8.40;91.00;;;;;;5074193;28;20069;-76
2022/01/30 01:07:58;;;;;;;28.67;4.57;;;8.40;91.10;;;;;;5073801;28;20028;-76
2022/01/30 01:10:34;;;;;;;27.50;4.78;;;8.30;91.00;;;;;;5074084;28;20054;-76
2022/01/30 01:23:43;;;;;;;27.17;3.50;;;8.40;91.50;;;;;;5073880;28;20031;-76
2022/01/30 01:26:09;;;;;;;23.63;3.60;;;8.40;91.30;;;;;;5073968;28;20103;-76
2022/01/30 01:28:35;;;;;;;19.23;4.15;;;8.40;91.20;;;;;;5074004;28;20044;-76
2022/01/30 01:31:00;;;;;;;20.48;2.70;;;8.40;90.90;;;;;;5073620;28;20492;-76
2022/01/30 01:33:35;;;;;;;21.83;3.25;;;8.40;90.70;;;;;;5073673;28;20050;-76
2022/01/30 01:36:00;;;;;;;20.02;2.25;;;8.40;90.50;;;;;;5073642;28;20033;-76
2022/01/30 01:38:26;;;;;;;16.85;2.25;;;8.40;90.60;;;;;;5073531;28;20021;-76
2022/01/30 01:40:54;;;;;;;13.65;1.92;;;8.40;90.60;;;;;;5073635;28;20431;-76
2022/01/30 01:43:21;;;;;;;14.10;2.60;;;8.30;90.50;;;;;;5073759;28;20055;-76
2022/01/30 01:45:50;;;;;;;18.88;2.47;;;8.30;90.80;;;;;;5073425;28;20098;-76
2022/01/30 01:48:16;;;;;;;17.63;3.17;;;8.30;91.00;;;;;;5073140;28;20029;-76
2022/01/30 01:50:50;;;;;;;18.20;2.55;;;8.30;91.10;;;;;;5073689;28;20103;-76
2022/01/30 01:53:16;;;;;;;20.45;2.50;;;8.30;91.30;;;;;;5073622;28;20024;-76
2022/01/30 01:55:43;;;;;;;18.70;2.95;;;8.30;91.30;;;;;;5073333;28;20093;-76
2022/01/30 01:58:09;;;;;;;19.58;2.90;;;8.20;91.60;;;;;;5073284;28;20400;-76
2022/01/30 02:00:36;;;;;;;27.58;3.58;;;8.20;91.70;;;;;;5073175;28;20029;-77
2022/01/30 02:03:02;;;;;;;20.15;2.90;;;8.20;91.90;;;;;;5073448;28;20028;-76
2022/01/30 02:05:31;;;;;;;25.48;3.53;;;8.10;91.90;;;;;;5073498;28;20066;-77
2022/01/30 02:10:37;;;;;;;21.45;2.70;;;8.20;92.00;;;;;;5073438;28;20028;-74
2022/01/30 02:13:33;;;;;;;25.75;3.30;;;8.20;92.10;;;;;;5077111;28;20025;-74
2022/01/30 02:24:13;;;;;;;19.08;2.38;;;8.20;92.60;;;;;;5076871;28;20031;-77
2022/01/30 02:26:45;;;;;;;27.10;3.30;;;8.20;92.80;;;;;;5077333;28;20029;-76
2022/01/30 02:29:11;;;;;;;21.38;3.33;;;8.30;93.00;;;;;;5077144;28;20036;-76
2022/01/30 02:31:40;;;;;;;25.40;4.00;;;8.30;93.00;;;;;;5077024;28;20025;-76
2022/01/30 02:34:06;;;;;;;22.35;3.30;;;8.20;93.30;;;;;;5076987;28;20387;-76
2022/01/30 02:36:32;;;;;;;22.08;3.60;;;8.10;93.60;;;;;;5076905;28;20032;-76
2022/01/30 02:38:59;;;;;;;17.83;2.50;;;8.00;93.90;;;;;;5076740;28;20032;-75
2022/01/30 02:41:25;;;;;;;26.45;2.42;;;8.00;93.60;;;;;;5077109;28;20108;-77
2022/01/30 02:44:28;;;;;;;18.55;2.00;;;8.00;93.50;;;;;;5076983;28;20096;-76
2022/01/30 02:46:49;;;;;;;16.38;2.13;;;8.00;93.40;;;;;;5074541;28;20032;-76
2022/01/30 02:51:51;;;;;;;17.88;1.92;;;7.90;93.00;;;;;;5076830;28;20020;-77
2022/01/30 02:54:17;;;;;;;14.43;2.00;;;7.90;92.90;;;;;;5076873;28;20043;-76
2022/01/30 02:56:43;;;;;;;13.70;1.70;;;7.90;93.00;;;;;;5075980;28;20127;-76
2022/01/30 02:59:10;;;;;;;16.55;2.13;;;7.90;92.80;;;;;;5075457;28;20067;-76
2022/01/30 03:01:35;;;;;;;21.48;2.53;;;7.90;92.60;;;;;;5075549;28;20037;-75
2022/01/30 03:04:04;;;;;;;19.67;2.10;;;7.90;92.50;;;;;;5075403;28;20375;-75
2022/01/30 03:06:30;;;;;;;16.85;1.85;;;7.90;92.40;;;;;;5074976;28;20095;-76
2022/01/30 03:08:56;;;;;;;15.80;2.42;;;7.90;92.50;;;;;;5075512;28;20056;-75
2022/01/30 03:11:22;;;;;;;21.83;2.50;;;7.90;92.60;;;;;;5078039;28;20080;-74
2022/01/30 03:13:48;;;;;;;23.05;2.35;;;7.90;92.70;;;;;;5079078;28;20055;-76
2022/01/30 03:16:13;;;;;;;20.13;2.08;;;7.90;92.70;;;;;;5075620;28;20422;-76
2022/01/30 03:18:40;;;;;;;17.15;2.53;;;7.90;92.90;;;;;;5075043;28;20028;-75
2022/01/30 03:21:07;;;;;;;21.35;2.88;;;7.80;92.90;;;;;;5075000;28;20135;-76
2022/01/30 03:23:38;;;;;;;18.10;2.30;;;7.80;92.70;;;;;;5075090;28;20107;-76
2022/01/30 03:26:04;;;;;;;15.50;1.67;;;7.80;92.60;;;;;;5074797;28;20032;-76
2022/01/30 03:28:31;;;;;;;17.50;2.08;;;7.80;92.50;;;;;;5074753;28;20024;-76
2022/01/30 03:31:02;;;;;;;15.95;1.85;;;7.80;92.40;;;;;;5074488;28;20414;-75
2022/01/30 03:33:28;;;;;;;19.33;2.55;;;7.90;92.50;;;;;;5074884;28;20024;-75
2022/01/30 03:35:54;;;;;;;21.08;2.25;;;7.90;92.40;;;;;;5074832;28;20162;-75
2022/01/30 03:38:20;;;;;;;15.65;1.85;;;7.90;92.40;;;;;;5074542;28;20029;-75
2022/01/30 03:40:47;;;;;;;17.02;1.80;;;7.90;92.20;;;;;;5074695;28;20021;-75
2022/01/30 03:43:13;;;;;;;23.05;2.80;;;7.90;91.80;;;;;;5074533;28;20040;-75
2022/01/30 03:45:39;;;;;;;16.90;1.95;;;7.90;91.60;;;;;;5074210;28;20032;-75
2022/01/30 03:48:05;;;;;;;19.20;2.28;;;7.90;91.70;;;;;;5074320;28;20033;-75
2022/01/30 03:50:31;;;;;;;16.55;1.63;;;7.90;91.50;;;;;;5074605;28;20035;-75
2022/01/30 03:52:57;;;;;;;17.08;2.05;;;7.90;91.40;;;;;;5074546;28;20094;-75
2022/01/30 03:55:23;;;;;;;10.88;1.88;;;7.90;91.10;;;;;;5073833;28;20033;-75
2022/01/30 03:57:49;;;;;;;13.43;1.77;;;7.90;91.10;;;;;;5035460;28;1129532;-74
2022/01/30 04:00:16;;;;;;;15.88;2.10;;;7.90;91.00;;;;;;5075513;28;20029;-75
2022/01/30 04:02:42;;;;;;;12.27;1.85;;;7.90;90.80;;;;;;5075093;28;20024;-75
2022/01/30 04:05:08;;;;;;;14.38;1.77;;;7.90;90.70;;;;;;5075176;28;20028;-75
2022/01/30 04:07:34;;;;;;;17.17;2.10;;;7.80;90.80;;;;;;5075255;28;20551;-74
2022/01/30 04:10:01;;;;;;;17.17;2.33;;;7.80;90.70;;;;;;5077786;28;20082;-74
2022/01/30 04:12:27;;;;;;;16.95;1.52;;;7.70;91.00;;;;;;5076561;28;20541;-75
2022/01/30 04:14:53;;;;;;;19.88;2.33;;;7.80;91.20;;;;;;5075123;28;20036;-76
2022/01/30 04:17:19;;;;;;;18.27;2.38;;;7.70;91.30;;;;;;5074745;28;20033;-75
2022/01/30 04:19:45;;;;;;;14.95;2.17;;;7.70;91.30;;;;;;5075034;28;20100;-76
2022/01/30 04:22:11;;;;;;;18.77;2.03;;;7.70;91.30;;;;;;5074429;28;20032;-75
2022/01/30 04:24:38;;;;;;;19.38;1.77;;;7.80;91.40;;;;;;5074595;28;20111;-75
2022/01/30 04:27:04;;;;;;;16.35;2.00;;;7.70;91.40;;;;;;5074863;28;20021;-75
2022/01/30 04:29:30;;;;;;;20.17;2.65;;;7.70;91.40;;;;;;5074714;28;20035;-75
2022/01/30 04:31:55;;;;;;;13.82;1.73;;;7.70;91.60;;;;;;5074625;28;20025;-75
2022/01/30 04:34:22;;;;;;;15.88;1.77;;;7.70;91.50;;;;;;5074773;28;20048;-74
2022/01/30 04:40:03;;;;;;;15.13;1.88;;;7.60;91.50;;;;;;5074468;28;20016;-75
2022/01/30 05:09:28;;;;;;;22.52;2.58;;;7.60;92.00;;;;;;5079286;28;20025;-76
2022/01/30 05:11:54;;;;;;;21.08;2.35;;;7.60;91.90;;;;;;5074627;28;20391;-76
2022/01/30 05:14:23;;;;;;;20.77;3.28;;;7.60;91.80;;;;;;5073719;28;20029;-76
2022/01/30 05:16:49;;;;;;;19.70;2.35;;;7.60;91.90;;;;;;5073643;28;20414;-76
2022/01/30 05:19:17;;;;;;;18.80;2.22;;;7.60;91.80;;;;;;5073710;28;20021;-75
2022/01/30 05:21:43;;;;;;;16.55;2.53;;;7.60;91.80;;;;;;5073662;28;20032;-75
2022/01/30 05:24:09;;;;;;;20.98;2.47;;;7.60;91.60;;;;;;5073507;28;20035;-75
2022/01/30 05:26:40;;;;;;;20.67;3.00;;;7.60;91.50;;;;;;5073570;28;20031;-75
2022/01/30 05:29:06;;;;;;;25.42;2.58;;;7.50;91.80;;;;;;5073311;28;20543;-75
2022/01/30 05:31:32;;;;;;;21.10;2.40;;;7.50;91.50;;;;;;5073833;28;20294;-75
2022/01/30 05:33:58;;;;;;;30.08;3.33;;;7.50;91.60;;;;;;5073665;28;20435;-75
2022/01/30 05:36:24;;;;;;;15.82;2.40;;;7.50;91.50;;;;;;5073278;28;20055;-74
2022/01/30 05:38:50;;;;;;;20.67;2.28;;;7.40;91.60;;;;;;5073644;28;20115;-75
2022/01/30 05:41:17;;;;;;;17.42;2.17;;;7.50;91.70;;;;;;5073656;28;20024;-75
2022/01/30 05:43:43;;;;;;;24.02;2.03;;;7.50;91.70;;;;;;5073324;28;20533;-75
2022/01/30 05:46:17;;;;;;;17.20;2.22;;;7.50;91.70;;;;;;5073357;28;20099;-75
2022/01/30 05:48:43;;;;;;;17.30;2.03;;;7.50;91.70;;;;;;5073506;28;20082;-75
2022/01/30 05:51:08;;;;;;;19.85;2.28;;;7.50;91.70;;;;;;5073288;28;20040;-75
2022/01/30 05:53:34;;;;;;;18.55;1.90;;;7.50;91.80;;;;;;5073155;28;20024;-75
2022/01/30 05:56:00;;;;;;;19.45;3.28;;;7.50;91.80;;;;;;5073000;28;20048;-75
2022/01/30 05:58:26;;;;;;;14.30;2.15;;;7.50;91.80;;;;;;5073300;28;20032;-75
2022/01/30 06:00:51;;;;;;;20.25;2.63;;;7.60;91.80;;;;;;5073439;28;20384;-76
2022/01/30 06:03:17;;;;;;;21.08;2.22;;;7.60;91.80;;;;;;5073379;28;20107;-75
2022/01/30 06:05:46;;;;;;;17.58;2.35;;;7.60;91.80;;;;;;5075466;28;20020;-75
2022/01/30 06:08:15;;;;;;;17.10;3.05;;;7.60;91.80;;;;;;5076659;28;20055;-75
2022/01/30 06:10:41;;;;;;;18.85;2.65;;;7.50;92.00;;;;;;5073376;28;20020;-75
2022/01/30 06:13:07;;;;;;;25.02;3.28;;;7.50;92.30;;;;;;5073438;28;20035;-75
2022/01/30 06:15:32;;;;;;;20.58;2.33;;;7.40;92.60;;;;;;5073195;28;20439;-75
2022/01/30 06:17:58;;;;;;;21.77;2.60;;;7.40;92.90;;;;;;5072741;28;20514;-75
2022/01/30 06:20:24;;;;;;;22.25;3.20;;;7.40;93.20;;;;;;5073233;28;20025;-76
2022/01/30 06:22:49;;;;;;;23.10;2.95;;;7.30;93.40;;;;;;5072950;28;20472;-75
2022/01/30 06:25:15;;;;;;;21.38;3.42;;;7.30;93.50;;;;;;5073162;28;20025;-75
2022/01/30 06:27:41;;;;;;;29.27;3.25;;;7.30;93.60;;;;;;5073151;28;20024;-75
2022/01/30 06:30:08;;;;;;;27.35;2.80;;;7.40;93.90;;;;;;5072503;28;20488;-74
2022/01/30 06:32:34;;;;;;;19.08;3.20;;;7.40;93.60;;;;;;5072903;28;20082;-75
2022/01/30 06:35:02;;;;;;;24.15;3.15;;;7.40;93.60;;;;;;5072949;28;20017;-75
2022/01/30 06:37:30;;;;;;;33.25;3.58;;;7.30;93.70;;;;;;5072451;28;20028;-74
2022/01/30 06:39:56;;;;;;;26.63;3.38;;;7.40;93.70;;;;;;5072468;28;20020;-74
2022/01/30 06:42:22;;;;;;;36.75;4.32;;;7.40;93.70;;;;;;5072577;28;20086;-74
2022/01/30 06:44:48;;;;;;;34.38;3.88;;;7.40;93.60;;;;;;5073092;28;20031;-76
2022/01/30 06:47:13;;;;;;;26.75;4.25;;;7.50;93.70;;;;;;5073393;28;20099;-75
2022/01/30 06:49:39;;;;;;;24.25;3.58;;;7.40;93.90;;;;;;5072552;28;20516;-75
2022/01/30 06:52:07;;;;;;;26.23;3.38;;;7.50;93.70;;;;;;5072652;28;20108;-75
2022/01/30 06:54:33;;;;;;;27.13;4.03;;;7.40;93.60;;;;;;5072875;28;20029;-75
2022/01/30 06:56:58;;;;;;;19.05;3.05;;;7.40;93.60;;;;;;5072351;28;20052;-75
2022/01/30 06:59:24;;;;;;;24.73;3.70;;;7.40;93.60;;;;;;5073804;28;20063;-76
2022/01/30 07:01:52;;;;;;;22.92;4.15;;;7.40;93.60;;;;;;5076395;28;20024;-74
2022/01/30 07:04:19;;;;;;;23.73;2.88;;;7.40;93.60;;;;;;5078254;28;20108;-74
2022/01/30 07:06:44;;;;;;;22.55;3.33;;;7.40;93.60;;;;;;5079061;28;20032;-76
2022/01/30 07:09:10;;;;;;;27.65;4.30;;;7.30;94.00;;;;;;5076183;28;20024;-76
2022/01/30 07:11:35;;;;;;;22.63;2.92;;;7.40;93.80;;;;;;5076355;28;20020;-76
2022/01/30 07:14:01;;;;;;;23.48;3.38;;;7.30;93.80;;;;;;5076003;28;20157;-75
2022/01/30 07:16:27;;;;;;;28.67;3.83;;;7.20;94.00;;;;;;5075986;28;20503;-77
2022/01/30 07:18:53;;;;;;;23.13;3.17;;;7.20;94.10;;;;;;5075945;28;20459;-75
2022/01/30 07:21:19;;;;;;;28.85;3.92;;;7.20;94.10;;;;;;5076187;28;20103;-75
2022/01/30 07:23:44;;;;;;;23.50;3.55;;;7.10;94.20;;;;;;5075718;28;20024;-75
2022/01/30 07:26:10;;;;;;;25.15;3.15;;;7.20;94.20;;;;;;5075807;28;20025;-75
2022/01/30 07:28:35;;;;;;;24.35;3.55;;;7.20;94.20;;;;;;5075531;28;20334;-75
2022/01/30 07:31:01;;;;;;;23.60;3.00;;;7.20;94.10;;;;;;5076020;28;20036;-75
2022/01/30 07:33:27;;;;;;;28.25;3.17;;;7.20;94.10;;;;;;5075754;28;20494;-75
2022/01/30 07:35:55;;;;;;;29.63;3.65;;;7.20;94.00;;;;;;5075580;28;20028;-75
2022/01/30 07:38:21;;;;;;;23.42;3.33;;;7.20;93.90;;;;;;5075516;28;20031;-75
2022/01/30 07:40:48;;;;;;;33.38;4.40;;;7.20;93.90;;;;;;5075865;28;20434;-75
2022/01/30 07:43:13;;;;;;;27.00;3.53;;;7.20;93.80;;;;;;5075535;28;20535;-75
2022/01/30 07:45:39;;;;;;;23.15;3.80;;;7.20;93.70;;;;;;5075890;28;20059;-75
2022/01/30 07:48:05;;;;;;;24.63;3.72;;;7.20;93.70;;;;;;5075510;28;20020;-75
2022/01/30 07:50:30;;;;;;;28.00;3.90;;;7.20;93.70;;;;;;5075548;28;20124;-77
2022/01/30 07:52:56;;;;;;;28.30;3.80;;;7.20;93.60;;;;;;5075413;28;20032;-76
2022/01/30 07:55:22;;;;;;;27.15;4.82;;;7.20;93.50;;;;;;5075491;28;20039;-81
2022/01/30 07:57:48;;;;;;;39.05;4.13;;;7.20;93.50;;;;;;5075551;28;20049;-80
2022/01/30 08:00:14;;;;;;;25.38;3.30;;;7.20;93.40;;;;;;5076583;28;20023;-79
2022/01/30 08:02:40;;;;;;;28.48;3.83;;;7.20;93.30;;;;;;5085109;28;20074;-79
2022/01/30 08:05:06;;;;;;;23.67;3.30;;;7.20;93.30;;;;;;5092744;28;20464;-82
2022/01/30 08:07:31;;;;;;;22.42;3.67;;;7.20;93.20;;;;;;5083117;28;20028;-83
2022/01/30 08:09:58;;;;;;;22.63;3.28;;;7.20;93.40;;;;;;5075350;28;20544;-85
2022/01/30 08:12:23;;;;;;;29.02;3.40;;;7.20;93.10;;;;;;5074783;28;20078;-84
2022/01/30 08:14:49;;;;;;;24.88;3.53;;;7.30;93.00;;;;;;5075429;28;20025;-81
2022/01/30 08:17:21;;;;;;;36.20;3.80;;;7.30;92.90;;;;;;5065616;28;20039;-80
2022/01/30 08:19:47;;;;;;;22.38;3.70;;;7.30;92.90;;;;;;5063429;28;20024;-84
2022/01/30 08:22:13;;;;;;;27.42;4.25;;;7.40;92.90;;;;;;5063522;28;20114;-84
2022/01/30 08:24:39;;;;;;;28.30;3.90;;;7.30;92.70;;;;;;5055532;28;20032;-79
2022/01/30 08:27:05;;;;;;;34.28;4.45;;;7.30;92.50;;;;;;5054973;28;20032;-77
2022/01/30 08:29:31;;;;;;;24.45;4.50;;;7.30;92.70;;;;;;5054625;28;20021;-78
2022/01/30 08:31:58;;;;;;;37.67;5.57;;;7.40;92.60;;;;;;5055046;28;20021;-80
2022/01/30 08:34:24;;;;;;;30.48;4.05;;;7.40;92.50;;;;;;5055213;28;20143;-83
2022/01/30 08:36:51;;;;;;;34.85;5.53;;;7.40;92.40;;;;;;5055355;28;20087;-83
2022/01/30 08:39:16;;;;;;;33.55;4.18;;;7.50;92.30;;;;;;5054948;28;20481;-83
2022/01/30 08:41:42;;;;;;;26.52;4.05;;;7.50;92.20;;;;;;5054813;28;20029;-79
2022/01/30 08:44:08;;;;;;;32.70;4.22;;;7.50;92.10;;;;;;5055851;28;20033;-88
2022/01/30 08:46:33;;;;;;;34.95;4.47;;;7.50;92.00;;;;;;5055461;28;20047;-86
2022/01/30 08:48:59;;;;;;;30.02;4.28;;;7.50;92.00;;;;;;5055330;28;20021;-87
2022/01/30 08:51:25;;;;;;;23.48;3.85;;;7.50;91.90;;;;;;5055483;28;20102;-87
2022/01/30 08:53:50;;;;;;;36.53;4.15;;;7.50;92.00;;;;;;5055576;28;20025;-86
2022/01/30 08:56:18;;;;;;;28.77;3.70;;;7.50;91.90;;;;;;5055053;28;20059;-88
2022/01/30 08:58:44;;;;;;;23.88;4.55;;;7.50;92.00;;;;;;5055781;28;20083;-86
2022/01/30 09:01:12;;;;;;;32.28;4.80;;;7.50;91.90;;;;;;5066186;28;20029;-79
2022/01/30 09:03:38;;;;;;;30.67;3.90;;;7.60;91.80;;;;;;5066750;28;20012;-82
2022/01/30 09:06:03;;;;;;;30.73;5.25;;;7.60;91.70;;;;;;5055406;28;20052;-79
2022/01/30 09:08:32;;;;;;;30.08;4.10;;;7.70;91.70;;;;;;5054477;28;20107;-83
2022/01/30 09:10:58;;;;;;;30.33;4.30;;;7.70;91.50;;;;;;5054545;28;20040;-79
2022/01/30 09:13:24;;;;;;;34.88;4.53;;;7.80;91.40;;;;;;5054607;28;20097;-88
2022/01/30 09:15:56;;;;;;;26.88;3.60;;;7.80;91.40;;;;;;5054349;28;20033;-83
2022/01/30 09:18:22;;;;;;;37.30;4.57;;;7.90;91.40;;;;;;5053771;28;20036;-78
2022/01/30 09:20:48;;;;;;;34.22;4.25;;;7.90;91.30;;;;;;5054361;28;20227;-80
2022/01/30 09:23:14;;;;;;;32.60;4.22;;;7.90;91.30;;;;;;5053876;28;20029;-78
2022/01/30 09:25:41;;;;;;;28.83;4.50;;;7.90;91.10;;;;;;5054078;28;20025;-81
2022/01/30 09:28:07;;;;;;;32.30;4.88;;;7.90;91.00;;;;;;5053838;28;20029;-81
2022/01/30 09:30:33;;;;;;;29.00;4.10;;;7.80;91.10;;;;;;5053862;28;20025;-77
2022/01/30 09:32:59;;;;;;;25.15;4.07;;;7.90;91.30;;;;;;5053991;28;20104;-78
2022/01/30 09:35:24;;;;;;;29.10;4.03;;;8.00;91.60;;;;;;5054033;28;20053;-80
2022/01/30 09:37:50;;;;;;;30.35;4.25;;;8.10;91.70;;;;;;5053595;28;20472;-77
2022/01/30 09:40:17;;;;;;;37.90;4.80;;;8.20;91.70;;;;;;5053589;28;20029;-77
2022/01/30 09:42:45;;;;;;;31.85;4.90;;;8.30;91.30;;;;;;5053492;28;20452;-78
2022/01/30 09:45:12;;;;;;;25.50;4.43;;;8.30;91.00;;;;;;5053697;28;20104;-80
2022/01/30 09:47:39;;;;;;;28.05;4.38;;;8.40;90.90;;;;;;5053619;28;20376;-78
2022/01/30 09:50:08;;;;;;;26.42;3.75;;;8.50;90.50;;;;;;5053343;28;20022;-78
2022/01/30 09:52:34;;;;;;;28.92;4.05;;;8.60;90.60;;;;;;5053403;28;20033;-78
2022/01/30 09:55:00;;;;;;;31.40;4.95;;;8.70;90.40;;;;;;5053574;28;20476;-77
2022/01/30 09:57:26;;;;;;;37.53;5.88;;;8.70;89.60;;;;;;5053866;28;20135;-80
2022/01/30 09:59:51;;;;;;;27.98;4.20;;;8.70;89.70;;;;;;5055198;28;20025;-82
2022/01/30 10:02:18;;;;;;;27.67;4.63;;;8.70;89.80;;;;;;5053269;28;20098;-82
2022/01/30 10:04:44;;;;;;;34.22;4.65;;;8.70;90.00;;;;;;5053820;28;20079;-81
2022/01/30 10:07:15;;;;;;;35.65;5.13;;;8.80;89.50;;;;;;5053630;28;20527;-80
2022/01/30 10:09:49;;;;;;;34.22;4.78;;;8.80;88.60;;;;;;5053367;28;20029;-80
2022/01/30 10:12:23;;;;;;;35.58;5.03;;;8.80;88.00;;;;;;5053517;28;20093;-80
2022/01/30 10:15:02;;;;;;;37.05;4.53;;;8.90;87.90;;;;;;5056225;28;20040;-80
2022/01/30 10:17:33;;;;;;;31.95;4.63;;;8.90;88.00;;;;;;5061575;28;20025;-80
2022/01/30 10:20:09;;;;;;;31.33;4.82;;;8.90;88.00;;;;;;5062108;28;20027;-80
2022/01/30 10:22:52;;;;;;;37.10;4.90;;;8.90;86.90;;;;;;5064958;28;20043;-80
2022/01/30 10:25:46;;;;;;;30.30;4.78;;;8.90;87.30;;;;;;5073701;28;20017;-79
2022/01/30 10:28:11;;;;;;;;;;;8.90;86.50;;;;;;5060194;28;20468;-79
2022/01/30 10:31:08;;;;;;;40.78;5.43;;;8.80;86.20;;;;;;5073184;28;19908;-81
2022/01/30 10:33:52;;;;;;;36.78;4.25;;;8.80;86.20;;;;;;5052776;28;20089;-80
2022/01/30 10:36:22;;;;;;;40.72;5.57;;;8.80;85.90;;;;;;5077212;28;20056;-80
2022/01/30 10:39:14;;;;;;;36.50;5.63;;;8.70;85.70;;;;;;5076707;28;20406;-78
2022/01/30 10:41:45;;;;;;;38.25;4.65;;;8.70;86.10;;;;;;5077322;28;20107;-78
2022/01/30 10:44:10;;;;;;;34.97;5.03;;;8.70;87.20;;;;;;5077559;28;20100;-78
2022/01/30 10:46:44;;;;;;;29.05;5.50;;;8.80;87.00;;;;;;5077129;28;20052;-78
2022/01/30 10:49:17;;;;;;;34.70;4.95;;;8.90;86.10;;;;;;5076830;28;20101;-79
2022/01/30 10:51:58;;;;;;;34.97;4.97;;;9.00;85.70;;;;;;5076730;28;20367;-79
2022/01/30 10:54:29;;;;;;;36.88;5.00;;;9.00;83.90;;;;;;5076657;28;20471;-79
2022/01/30 10:57:02;;;;;;;31.63;4.88;;;9.00;84.10;;;;;;5076479;28;20496;-79
2022/01/30 10:59:28;;;;;;;30.65;5.53;;;9.10;85.10;;;;;;5076838;28;20411;-79
2022/01/30 11:01:54;;;;;;;33.38;4.95;;;9.30;85.20;;;;;;5076644;28;20077;-79
2022/01/30 11:04:26;;;;;;;31.15;5.05;;;9.40;84.30;;;;;;5076809;28;20104;-79
2022/01/30 11:06:53;;;;;;;33.75;4.72;;;9.40;82.30;;;;;;5076688;28;20066;-78
2022/01/30 11:09:33;;;;;;;31.85;5.18;;;9.50;82.70;;;;;;5076707;28;20384;-78
2022/01/30 11:12:05;;;;;;;35.05;4.82;;;9.50;82.10;;;;;;5076602;28;20016;-78
2022/01/30 11:14:39;;;;;;;34.35;5.63;;;9.60;81.70;;;;;;5077027;28;20143;-79
2022/01/30 11:17:14;;;;;;;38.75;5.47;;;9.60;80.40;;;;;;5076493;28;20032;-79
2022/01/30 11:19:43;;;;;;;41.42;5.78;;;9.50;80.40;;;;;;5076542;28;20032;-79
2022/01/30 11:22:10;;;;;;;32.50;5.35;;;9.50;80.90;;;;;;5076689;28;20032;-79
2022/01/30 11:24:45;;;;;;;28.25;4.88;;;9.50;78.60;;;;;;5076304;28;20024;-79
2022/01/30 11:27:11;;;;;;;29.75;5.28;;;9.40;78.10;;;;;;5076397;28;20033;-79
2022/01/30 11:29:37;;;;;;;31.25;5.35;;;9.40;79.20;;;;;;5076112;28;20479;-79
2022/01/30 11:32:07;;;;;;;26.08;3.92;;;9.40;78.70;;;;;;5076375;28;20033;-90
2022/01/30 11:34:37;;;;;;;29.17;4.78;;;9.40;79.50;;;;;;5076284;28;20029;-81
2022/01/30 11:37:04;;;;;;;30.38;4.93;;;9.50;80.40;;;;;;5076281;28;20043;-84
2022/01/30 11:39:31;;;;;;;37.83;5.43;;;9.70;79.90;;;;;;5075921;28;20074;-84
2022/01/30 11:42:21;;;;;;;29.95;4.38;;;9.80;79.80;;;;;;5061682;28;20059;-84
2022/01/30 11:45:11;;;;;;;31.00;4.40;;;9.90;76.60;;;;;;5055548;28;20017;-85
2022/01/30 11:47:44;;;;;;;42.97;5.70;;;9.80;74.90;;;;;;5046663;28;20480;-86
2022/01/30 11:50:11;;;;;;;30.67;5.05;;;9.70;75.10;;;;;;5065276;28;20089;-87
2022/01/30 11:53:09;;;;;;;27.92;4.28;;;9.70;76.50;;;;;;5060244;28;20089;-86
2022/01/30 11:55:54;;;;;;;27.00;4.57;;;9.70;76.00;;;;;;5049975;28;20064;-83
2022/01/30 11:58:32;;;;;;;33.92;4.72;;;9.70;76.80;;;;;;5054548;28;20488;-85
2022/01/30 12:01:15;;;;;;;51.40;9.05;;;9.70;75.50;;;;;;5061715;28;20045;-85
2022/01/30 12:03:56;;;;;;;37.53;5.80;;;9.80;75.50;;;;;;5057607;28;20460;-88
2022/01/30 12:06:25;;;;;;;32.72;5.25;;;9.80;74.80;;;;;;5065842;28;20177;-87
2022/01/30 12:08:52;;;;;;;35.13;5.35;;;9.90;75.40;;;;;;5063962;28;20476;-85
2022/01/30 12:11:36;;;;;;;40.28;6.03;;;9.90;74.40;;;;;;5072816;28;20078;-84
2022/01/30 12:14:03;;;;;;;36.00;5.82;;;9.90;74.70;;;;;;5069289;28;20265;-83
2022/01/30 12:16:52;;;;;;;33.28;4.40;;;9.90;72.60;;;;;;5059660;28;20041;-85
2022/01/30 12:19:37;;;;;;;33.72;4.57;;;9.90;73.40;;;;;;5064159;28;20023;-88
2022/01/30 12:22:18;;;;;;;28.52;5.28;;;10.00;72.50;;;;;;5067696;28;20036;-87
2022/01/30 12:24:45;;;;;;;33.30;5.43;;;10.00;72.00;;;;;;5075236;28;20081;-82
2022/01/30 12:27:11;;;;;;;32.92;4.50;;;9.90;71.10;;;;;;5075123;28;20032;-81
2022/01/30 12:29:42;;;;;;;34.70;6.13;;;9.90;70.80;;;;;;5064581;28;20029;-84
2022/01/30 12:32:22;;;;;;;32.67;4.85;;;9.90;71.20;;;;;;5060772;28;20029;-87
2022/01/30 12:34:54;;;;;;;36.92;5.20;;;9.90;70.90;;;;;;5056171;28;20020;-85
2022/01/30 12:37:28;;;;;;;29.80;4.60;;;9.90;69.40;;;;;;5063287;28;20044;-82
2022/01/30 12:39:54;;;;;;;29.80;4.85;;;10.00;69.40;;;;;;5075171;28;20074;-83
2022/01/30 12:42:22;;;;;;;35.40;4.80;;;10.10;69.50;;;;;;5075104;28;20024;-83
2022/01/30 12:44:49;;;;;;;32.58;5.25;;;10.20;68.50;;;;;;5076102;28;20494;-80
2022/01/30 12:47:15;;;;;;;31.55;5.00;;;10.10;67.60;;;;;;5093024;28;20024;-86
2022/01/30 12:49:50;;;;;;;34.42;5.07;;;10.00;68.40;;;;;;5086778;28;20090;-87
2022/01/30 12:54:56;;;;;;;33.22;4.57;;;9.90;69.80;;;;;;5074864;28;20091;-89
2022/01/30 12:57:23;;;;;;;29.35;4.80;;;9.90;70.30;;;;;;5073682;28;20045;-84
2022/01/30 12:59:53;;;;;;;36.33;5.78;;;9.90;70.30;;;;;;5073371;28;20024;-83
2022/01/30 13:02:19;;;;;;;36.00;5.53;;;9.90;71.00;;;;;;5072655;28;20511;-84
2022/01/30 13:04:46;;;;;;;31.33;4.65;;;10.00;69.70;;;;;;5072890;28;20066;-87
2022/01/30 13:07:15;;;;;;;24.08;4.78;;;10.00;69.70;;;;;;5072686;28;20111;-88
2022/01/30 13:09:41;;;;;;;28.42;4.85;;;10.00;69.70;;;;;;5073032;28;20491;-89
2022/01/30 13:12:14;;;;;;;38.80;5.22;;;10.00;69.50;;;;;;5073120;28;20016;-88
2022/01/30 13:14:43;;;;;;;33.67;5.03;;;10.10;70.00;;;;;;5074093;28;20426;-89
2022/01/30 13:17:10;;;;;;;34.38;5.30;;;10.10;69.00;;;;;;5074594;28;20147;-85
2022/01/30 13:19:44;;;;;;;31.70;5.65;;;10.10;68.80;;;;;;5074731;28;20020;-83
2022/01/30 13:22:22;;;;;;;26.80;4.65;;;10.00;68.90;;;;;;5073868;28;20029;-84
2022/01/30 13:24:54;;;;;;;30.73;4.40;;;10.00;69.60;;;;;;5074495;28;20027;-83
2022/01/30 13:27:19;;;;;;;25.95;4.25;;;9.90;68.80;;;;;;5074472;28;20021;-85
2022/01/30 13:29:45;;;;;;;24.13;4.70;;;9.90;69.00;;;;;;5073784;28;20589;-84
2022/01/30 13:32:12;;;;;;;27.27;4.97;;;9.90;68.70;;;;;;5073171;28;20028;-91
2022/01/30 13:34:41;;;;;;;29.92;4.60;;;10.00;68.40;;;;;;5065741;28;20052;-90
2022/01/30 13:37:10;;;;;;;29.17;4.72;;;10.10;67.90;;;;;;5066468;28;20464;-87
2022/01/30 13:39:44;;;;;;;30.60;4.88;;;10.20;68.10;;;;;;5068024;28;20033;-90
2022/01/30 13:43:05;;;;;;;27.45;4.97;;;10.40;66.40;;;;;;5078514;28;20016;-86
2022/01/30 13:48:02;;;;;;;25.95;3.90;;;10.60;66.10;;;;;;5072568;28;20047;-89
2022/01/30 13:50:27;;;;;;;26.77;4.30;;;10.50;65.10;;;;;;5072931;28;20086;-86
2022/01/30 13:53:03;;;;;;;30.70;4.90;;;10.50;65.40;;;;;;5071958;28;20037;-80